sensor_id;sensor_type;location;lat;lon;timestamp;temperature;humidity
44747;DHT22;30472;49.490;10.972;2023-04-03T00:01:35;3.50;99.90
44747;DHT22;30472;49.490;10.972;2023-04-03T00:04:04;3.50;99.90
44747;DHT22;30472;49.490;10.972;2023-04-03T00:06:30;3.40;99.90
44747;DHT22;30472;49.490;10.972;2023-04-03T00:08:56;3.40;99.90
44747;DHT22;30472;49.490;10.972;2023-04-03T00:11:22;3.50;99.90
44747;DHT22;30472;49.490;10.972;2023-04-03T00:13:47;3.40;99.90
44747;DHT22;30472;49.490;10.972;2023-04-03T00:16:13;3.40;99.90
44747;DHT22;30472;49.490;10.972;2023-04-03T00:18:39;3.40;99.90
44747;DHT22;30472;49.490;10.972;2023-04-03T00:21:06;3.40;99.90
44747;DHT22;30472;49.490;10.972;2023-04-03T00:23:32;3.40;99.90
44747;DHT22;30472;49.490;10.972;2023-04-03T00:25:58;3.30;99.90
44747;DHT22;30472;49.490;10.972;2023-04-03T00:28:25;3.30;99.90
44747;DHT22;30472;49.490;10.972;2023-04-03T00:30:52;3.30;99.90
44747;DHT22;30472;49.490;10.972;2023-04-03T00:33:17;3.20;99.90
44747;DHT22;30472;49.490;10.972;2023-04-03T00:35:47;3.20;99.90
44747;DHT22;30472;49.490;10.972;2023-04-03T00:38:13;3.20;99.90
44747;DHT22;30472;49.490;10.972;2023-04-03T00:40:43;3.10;99.90
44747;DHT22;30472;49.490;10.972;2023-04-03T00:45:47;3.10;99.90
44747;DHT22;30472;49.490;10.972;2023-04-03T00:48:26;3.10;99.90
44747;DHT22;30472;49.490;10.972;2023-04-03T00:50:53;3.10;99.90
44747;DHT22;30472;49.490;10.972;2023-04-03T00:53:24;3.10;99.90
44747;DHT22;30472;49.490;10.972;2023-04-03T00:55:51;3.10;99.90
44747;DHT22;30472;49.490;10.972;2023-04-03T00:58:20;3.10;99.90
44747;DHT22;30472;49.490;10.972;2023-04-03T01:00:50;3.10;99.90
44747;DHT22;30472;49.490;10.972;2023-04-03T01:03:21;3.10;99.90
44747;DHT22;30472;49.490;10.972;2023-04-03T01:05:47;3.10;99.90
44747;DHT22;30472;49.490;10.972;2023-04-03T01:08:12;3.00;99.90
44747;DHT22;30472;49.490;10.972;2023-04-03T01:10:38;3.00;99.90
44747;DHT22;30472;49.490;10.972;2023-04-03T01:13:18;3.00;99.90
44747;DHT22;30472;49.490;10.972;2023-04-03T01:15:44;3.00;99.90
44747;DHT22;30472;49.490;10.972;2023-04-03T01:18:10;3.00;99.90
44747;DHT22;30472;49.490;10.972;2023-04-03T01:23:32;3.00;99.90
44747;DHT22;30472;49.490;10.972;2023-04-03T01:26:02;2.90;99.90
44747;DHT22;30472;49.490;10.972;2023-04-03T01:28:31;2.90;99.90
44747;DHT22;30472;49.490;10.972;2023-04-03T01:31:25;2.90;99.90
44747;DHT22;30472;49.490;10.972;2023-04-03T01:33:51;2.90;99.90
44747;DHT22;30472;49.490;10.972;2023-04-03T01:36:20;2.80;99.90
44747;DHT22;30472;49.490;10.972;2023-04-03T01:38:47;2.80;99.90
44747;DHT22;30472;49.490;10.972;2023-04-03T01:41:13;2.80;99.90
44747;DHT22;30472;49.490;10.972;2023-04-03T01:43:39;2.70;99.90
44747;DHT22;30472;49.490;10.972;2023-04-03T01:46:04;2.70;99.90
44747;DHT22;30472;49.490;10.972;2023-04-03T01:48:30;2.70;99.90
44747;DHT22;30472;49.490;10.972;2023-04-03T01:50:56;2.60;99.90
44747;DHT22;30472;49.490;10.972;2023-04-03T01:53:21;2.60;99.90
44747;DHT22;30472;49.490;10.972;2023-04-03T01:55:47;2.50;99.90
44747;DHT22;30472;49.490;10.972;2023-04-03T01:58:13;2.50;99.90
44747;DHT22;30472;49.490;10.972;2023-04-03T02:00:39;2.40;99.90
44747;DHT22;30472;49.490;10.972;2023-04-03T02:03:04;2.40;99.90
44747;DHT22;30472;49.490;10.972;2023-04-03T02:05:30;2.30;99.90
44747;DHT22;30472;49.490;10.972;2023-04-03T02:07:56;2.20;99.90
44747;DHT22;30472;49.490;10.972;2023-04-03T02:10:21;2.20;99.90
44747;DHT22;30472;49.490;10.972;2023-04-03T02:12:47;2.10;99.90
44747;DHT22;30472;49.490;10.972;2023-04-03T02:15:13;2.10;99.90
44747;DHT22;30472;49.490;10.972;2023-04-03T02:17:38;2.10;99.90
44747;DHT22;30472;49.490;10.972;2023-04-03T02:20:04;2.10;99.90
44747;DHT22;30472;49.490;10.972;2023-04-03T02:22:30;2.00;99.90
44747;DHT22;30472;49.490;10.972;2023-04-03T02:24:56;2.00;99.90
44747;DHT22;30472;49.490;10.972;2023-04-03T02:27:22;2.00;99.90
44747;DHT22;30472;49.490;10.972;2023-04-03T02:29:47;2.00;99.90
44747;DHT22;30472;49.490;10.972;2023-04-03T02:32:13;1.90;99.90
44747;DHT22;30472;49.490;10.972;2023-04-03T02:34:38;1.90;99.90
44747;DHT22;30472;49.490;10.972;2023-04-03T02:37:04;1.90;99.90
44747;DHT22;30472;49.490;10.972;2023-04-03T02:39:29;1.90;99.90
44747;DHT22;30472;49.490;10.972;2023-04-03T02:41:55;1.90;99.90
44747;DHT22;30472;49.490;10.972;2023-04-03T02:44:21;1.80;99.90
44747;DHT22;30472;49.490;10.972;2023-04-03T02:46:46;1.80;99.90
44747;DHT22;30472;49.490;10.972;2023-04-03T02:49:12;1.80;99.90
44747;DHT22;30472;49.490;10.972;2023-04-03T02:51:37;1.70;99.90
44747;DHT22;30472;49.490;10.972;2023-04-03T02:54:03;1.70;99.90
44747;DHT22;30472;49.490;10.972;2023-04-03T02:56:28;1.70;99.90
44747;DHT22;30472;49.490;10.972;2023-04-03T02:58:54;1.70;99.90
44747;DHT22;30472;49.490;10.972;2023-04-03T03:01:20;1.70;99.90
44747;DHT22;30472;49.490;10.972;2023-04-03T03:03:46;1.70;99.90
44747;DHT22;30472;49.490;10.972;2023-04-03T03:06:14;1.60;99.90
44747;DHT22;30472;49.490;10.972;2023-04-03T03:08:40;1.60;99.90
44747;DHT22;30472;49.490;10.972;2023-04-03T03:11:06;1.60;99.90
44747;DHT22;30472;49.490;10.972;2023-04-03T03:13:32;1.60;99.90
44747;DHT22;30472;49.490;10.972;2023-04-03T03:15:58;1.60;99.90
44747;DHT22;30472;49.490;10.972;2023-04-03T03:18:24;1.50;99.90
44747;DHT22;30472;49.490;10.972;2023-04-03T03:20:54;1.50;99.90
44747;DHT22;30472;49.490;10.972;2023-04-03T03:23:21;1.40;99.90
44747;DHT22;30472;49.490;10.972;2023-04-03T03:25:47;1.30;99.90
44747;DHT22;30472;49.490;10.972;2023-04-03T03:28:13;1.30;99.90
44747;DHT22;30472;49.490;10.972;2023-04-03T03:30:38;1.40;99.90
44747;DHT22;30472;49.490;10.972;2023-04-03T03:33:04;1.40;99.90
44747;DHT22;30472;49.490;10.972;2023-04-03T03:35:29;1.40;99.90
44747;DHT22;30472;49.490;10.972;2023-04-03T03:37:55;1.50;99.90
44747;DHT22;30472;49.490;10.972;2023-04-03T03:40:20;1.50;99.90
44747;DHT22;30472;49.490;10.972;2023-04-03T03:42:46;1.60;99.90
44747;DHT22;30472;49.490;10.972;2023-04-03T03:45:12;1.60;99.90
44747;DHT22;30472;49.490;10.972;2023-04-03T03:47:37;1.60;99.90
44747;DHT22;30472;49.490;10.972;2023-04-03T03:50:03;1.70;99.90
44747;DHT22;30472;49.490;10.972;2023-04-03T03:52:29;1.70;99.90
44747;DHT22;30472;49.490;10.972;2023-04-03T03:54:55;1.80;99.90
44747;DHT22;30472;49.490;10.972;2023-04-03T03:57:21;1.80;99.90
44747;DHT22;30472;49.490;10.972;2023-04-03T03:59:47;1.80;99.90
44747;DHT22;30472;49.490;10.972;2023-04-03T04:02:14;1.80;99.90
44747;DHT22;30472;49.490;10.972;2023-04-03T04:04:40;1.90;99.90
44747;DHT22;30472;49.490;10.972;2023-04-03T04:07:06;2.00;99.90
44747;DHT22;30472;49.490;10.972;2023-04-03T04:09:31;2.00;99.90
44747;DHT22;30472;49.490;10.972;2023-04-03T04:11:57;2.10;99.90
44747;DHT22;30472;49.490;10.972;2023-04-03T04:14:23;2.10;99.90
44747;DHT22;30472;49.490;10.972;2023-04-03T04:16:48;2.10;99.90
44747;DHT22;30472;49.490;10.972;2023-04-03T04:19:14;2.20;99.90
44747;DHT22;30472;49.490;10.972;2023-04-03T04:21:40;2.20;99.90
44747;DHT22;30472;49.490;10.972;2023-04-03T04:24:07;2.20;99.90
44747;DHT22;30472;49.490;10.972;2023-04-03T04:26:32;2.20;99.90
44747;DHT22;30472;49.490;10.972;2023-04-03T04:28:59;2.20;99.90
44747;DHT22;30472;49.490;10.972;2023-04-03T04:31:25;2.30;99.90
44747;DHT22;30472;49.490;10.972;2023-04-03T04:33:51;2.30;99.90
44747;DHT22;30472;49.490;10.972;2023-04-03T04:36:16;2.30;99.90
44747;DHT22;30472;49.490;10.972;2023-04-03T04:38:42;2.20;99.90
44747;DHT22;30472;49.490;10.972;2023-04-03T04:41:08;2.20;99.90
44747;DHT22;30472;49.490;10.972;2023-04-03T04:43:33;2.20;99.90
44747;DHT22;30472;49.490;10.972;2023-04-03T04:46:07;2.10;99.90
44747;DHT22;30472;49.490;10.972;2023-04-03T04:48:34;2.10;99.90
44747;DHT22;30472;49.490;10.972;2023-04-03T04:51:00;2.00;99.90
44747;DHT22;30472;49.490;10.972;2023-04-03T04:53:25;2.00;99.90
44747;DHT22;30472;49.490;10.972;2023-04-03T04:55:52;1.90;99.90
44747;DHT22;30472;49.490;10.972;2023-04-03T04:58:18;1.90;99.90
44747;DHT22;30472;49.490;10.972;2023-04-03T05:00:44;1.90;99.90
44747;DHT22;30472;49.490;10.972;2023-04-03T05:03:09;1.80;99.90
44747;DHT22;30472;49.490;10.972;2023-04-03T05:05:35;1.90;99.90
44747;DHT22;30472;49.490;10.972;2023-04-03T05:08:01;1.90;99.90
44747;DHT22;30472;49.490;10.972;2023-04-03T05:10:27;1.90;99.90
44747;DHT22;30472;49.490;10.972;2023-04-03T05:12:53;1.80;99.90
44747;DHT22;30472;49.490;10.972;2023-04-03T05:15:19;1.70;99.90
44747;DHT22;30472;49.490;10.972;2023-04-03T05:17:44;1.80;99.90
44747;DHT22;30472;49.490;10.972;2023-04-03T05:20:10;1.80;99.90
44747;DHT22;30472;49.490;10.972;2023-04-03T05:22:36;1.70;99.90
44747;DHT22;30472;49.490;10.972;2023-04-03T05:25:02;1.70;99.90
44747;DHT22;30472;49.490;10.972;2023-04-03T05:27:28;1.70;99.90
44747;DHT22;30472;49.490;10.972;2023-04-03T05:29:54;1.70;99.90
44747;DHT22;30472;49.490;10.972;2023-04-03T05:32:20;1.70;99.90
44747;DHT22;30472;49.490;10.972;2023-04-03T05:34:46;1.70;99.90
44747;DHT22;30472;49.490;10.972;2023-04-03T05:37:11;1.80;99.90
44747;DHT22;30472;49.490;10.972;2023-04-03T05:39:37;1.80;99.90
44747;DHT22;30472;49.490;10.972;2023-04-03T05:42:06;1.90;99.90
44747;DHT22;30472;49.490;10.972;2023-04-03T05:44:31;1.90;99.90
44747;DHT22;30472;49.490;10.972;2023-04-03T05:46:57;1.90;99.90
44747;DHT22;30472;49.490;10.972;2023-04-03T05:49:23;2.00;99.90
44747;DHT22;30472;49.490;10.972;2023-04-03T05:51:48;2.00;99.90
44747;DHT22;30472;49.490;10.972;2023-04-03T05:54:20;2.10;99.90
44747;DHT22;30472;49.490;10.972;2023-04-03T05:56:49;2.20;99.90
44747;DHT22;30472;49.490;10.972;2023-04-03T05:59:14;2.30;99.90
44747;DHT22;30472;49.490;10.972;2023-04-03T06:01:40;2.30;99.90
44747;DHT22;30472;49.490;10.972;2023-04-03T06:04:06;2.30;99.90
44747;DHT22;30472;49.490;10.972;2023-04-03T06:06:54;2.30;99.90
44747;DHT22;30472;49.490;10.972;2023-04-03T06:09:23;2.40;99.90
44747;DHT22;30472;49.490;10.972;2023-04-03T06:11:49;2.50;99.90
44747;DHT22;30472;49.490;10.972;2023-04-03T06:14:15;2.50;99.90
44747;DHT22;30472;49.490;10.972;2023-04-03T06:16:41;2.50;99.90
44747;DHT22;30472;49.490;10.972;2023-04-03T06:19:08;2.60;99.90
44747;DHT22;30472;49.490;10.972;2023-04-03T06:21:34;2.70;99.90
44747;DHT22;30472;49.490;10.972;2023-04-03T06:24:02;2.70;99.90
44747;DHT22;30472;49.490;10.972;2023-04-03T06:26:27;2.70;99.90
44747;DHT22;30472;49.490;10.972;2023-04-03T06:28:54;2.80;99.90
44747;DHT22;30472;49.490;10.972;2023-04-03T06:31:19;2.90;99.90
44747;DHT22;30472;49.490;10.972;2023-04-03T06:33:45;3.00;99.90
44747;DHT22;30472;49.490;10.972;2023-04-03T06:36:11;3.10;99.90
44747;DHT22;30472;49.490;10.972;2023-04-03T06:38:37;3.20;99.90
44747;DHT22;30472;49.490;10.972;2023-04-03T06:41:03;3.20;99.90
44747;DHT22;30472;49.490;10.972;2023-04-03T06:43:29;3.30;99.90
44747;DHT22;30472;49.490;10.972;2023-04-03T06:45:56;3.30;99.90
44747;DHT22;30472;49.490;10.972;2023-04-03T06:48:22;3.40;99.90
44747;DHT22;30472;49.490;10.972;2023-04-03T06:50:48;3.50;99.90
44747;DHT22;30472;49.490;10.972;2023-04-03T06:53:14;3.40;99.90
44747;DHT22;30472;49.490;10.972;2023-04-03T06:55:40;3.50;99.90
44747;DHT22;30472;49.490;10.972;2023-04-03T06:58:06;3.40;99.90
44747;DHT22;30472;49.490;10.972;2023-04-03T07:00:32;3.50;99.90
44747;DHT22;30472;49.490;10.972;2023-04-03T07:02:59;3.60;99.90
44747;DHT22;30472;49.490;10.972;2023-04-03T07:05:25;3.60;99.90
44747;DHT22;30472;49.490;10.972;2023-04-03T07:07:51;3.60;99.90
44747;DHT22;30472;49.490;10.972;2023-04-03T07:10:17;3.50;99.90
44747;DHT22;30472;49.490;10.972;2023-04-03T07:12:43;3.50;99.90
44747;DHT22;30472;49.490;10.972;2023-04-03T07:15:09;3.60;99.90
44747;DHT22;30472;49.490;10.972;2023-04-03T07:17:35;3.80;99.90
44747;DHT22;30472;49.490;10.972;2023-04-03T07:20:02;3.90;99.90
44747;DHT22;30472;49.490;10.972;2023-04-03T07:22:29;4.00;99.90
44747;DHT22;30472;49.490;10.972;2023-04-03T07:24:55;4.00;99.90
44747;DHT22;30472;49.490;10.972;2023-04-03T07:27:20;4.10;99.90
44747;DHT22;30472;49.490;10.972;2023-04-03T07:29:46;4.00;99.90
44747;DHT22;30472;49.490;10.972;2023-04-03T07:32:14;4.10;99.90
44747;DHT22;30472;49.490;10.972;2023-04-03T07:34:40;4.30;99.90
44747;DHT22;30472;49.490;10.972;2023-04-03T07:37:06;4.20;99.90
44747;DHT22;30472;49.490;10.972;2023-04-03T07:39:32;4.30;99.90
44747;DHT22;30472;49.490;10.972;2023-04-03T07:41:58;4.20;99.90
44747;DHT22;30472;49.490;10.972;2023-04-03T07:44:24;4.40;99.90
44747;DHT22;30472;49.490;10.972;2023-04-03T07:46:50;4.50;99.90
44747;DHT22;30472;49.490;10.972;2023-04-03T07:49:16;4.70;99.90
44747;DHT22;30472;49.490;10.972;2023-04-03T07:51:43;4.80;99.90
44747;DHT22;30472;49.490;10.972;2023-04-03T07:54:09;4.90;99.90
44747;DHT22;30472;49.490;10.972;2023-04-03T07:56:35;5.00;99.90
44747;DHT22;30472;49.490;10.972;2023-04-03T07:59:01;5.00;99.90
44747;DHT22;30472;49.490;10.972;2023-04-03T08:01:26;5.10;99.90
44747;DHT22;30472;49.490;10.972;2023-04-03T08:03:52;5.20;99.90
44747;DHT22;30472;49.490;10.972;2023-04-03T08:06:18;5.50;99.90
44747;DHT22;30472;49.490;10.972;2023-04-03T08:08:44;5.50;99.90
44747;DHT22;30472;49.490;10.972;2023-04-03T08:11:10;5.20;99.90
44747;DHT22;30472;49.490;10.972;2023-04-03T08:13:36;5.40;99.90
44747;DHT22;30472;49.490;10.972;2023-04-03T08:16:13;5.80;99.90
44747;DHT22;30472;49.490;10.972;2023-04-03T08:18:41;5.90;99.90
44747;DHT22;30472;49.490;10.972;2023-04-03T08:21:08;6.00;99.90
44747;DHT22;30472;49.490;10.972;2023-04-03T08:23:34;5.90;99.90
44747;DHT22;30472;49.490;10.972;2023-04-03T08:26:06;5.70;99.90
44747;DHT22;30472;49.490;10.972;2023-04-03T08:28:32;5.90;99.90
44747;DHT22;30472;49.490;10.972;2023-04-03T08:31:02;6.00;99.90
44747;DHT22;30472;49.490;10.972;2023-04-03T08:33:28;6.40;99.90
44747;DHT22;30472;49.490;10.972;2023-04-03T08:35:54;6.50;99.90
44747;DHT22;30472;49.490;10.972;2023-04-03T08:38:19;6.40;99.90
44747;DHT22;30472;49.490;10.972;2023-04-03T08:40:45;6.40;99.90
44747;DHT22;30472;49.490;10.972;2023-04-03T08:45:52;6.70;99.90
44747;DHT22;30472;49.490;10.972;2023-04-03T08:48:33;6.70;99.90
44747;DHT22;30472;49.490;10.972;2023-04-03T08:51:02;7.20;99.90
44747;DHT22;30472;49.490;10.972;2023-04-03T08:53:33;8.20;99.90
44747;DHT22;30472;49.490;10.972;2023-04-03T08:56:04;9.60;99.90
44747;DHT22;30472;49.490;10.972;2023-04-03T08:58:40;10.70;99.90
44747;DHT22;30472;49.490;10.972;2023-04-03T09:01:19;9.80;99.90
44747;DHT22;30472;49.490;10.972;2023-04-03T09:03:46;10.70;99.90
44747;DHT22;30472;49.490;10.972;2023-04-03T09:06:22;11.00;99.90
44747;DHT22;30472;49.490;10.972;2023-04-03T09:11:47;9.80;99.90
44747;DHT22;30472;49.490;10.972;2023-04-03T09:24:47;7.00;99.90
44747;DHT22;30472;49.490;10.972;2023-04-03T09:27:15;7.20;99.90
44747;DHT22;30472;49.490;10.972;2023-04-03T09:29:44;7.00;99.90
44747;DHT22;30472;49.490;10.972;2023-04-03T09:32:30;6.60;99.90
44747;DHT22;30472;49.490;10.972;2023-04-03T09:35:01;6.90;99.90
44747;DHT22;30472;49.490;10.972;2023-04-03T09:37:42;6.50;99.90
44747;DHT22;30472;49.490;10.972;2023-04-03T09:45:30;6.70;99.90
44747;DHT22;30472;49.490;10.972;2023-04-03T09:50:35;6.80;99.90
44747;DHT22;30472;49.490;10.972;2023-04-03T09:53:06;6.90;99.90
44747;DHT22;30472;49.490;10.972;2023-04-03T09:55:42;6.40;99.90
44747;DHT22;30472;49.490;10.972;2023-04-03T09:58:27;6.60;99.90
44747;DHT22;30472;49.490;10.972;2023-04-03T10:00:59;7.10;99.90
44747;DHT22;30472;49.490;10.972;2023-04-03T10:03:34;7.60;99.90
44747;DHT22;30472;49.490;10.972;2023-04-03T10:06:24;7.60;99.90
44747;DHT22;30472;49.490;10.972;2023-04-03T10:09:06;7.00;99.90
44747;DHT22;30472;49.490;10.972;2023-04-03T10:11:32;6.70;99.90
44747;DHT22;30472;49.490;10.972;2023-04-03T10:13:59;7.50;99.90
44747;DHT22;30472;49.490;10.972;2023-04-03T10:23:30;9.40;99.90
44747;DHT22;30472;49.490;10.972;2023-04-03T10:28:24;9.00;99.90
44747;DHT22;30472;49.490;10.972;2023-04-03T10:36:34;7.90;99.90
44747;DHT22;30472;49.490;10.972;2023-04-03T10:39:23;7.90;99.90
44747;DHT22;30472;49.490;10.972;2023-04-03T10:42:04;7.90;99.90
44747;DHT22;30472;49.490;10.972;2023-04-03T10:44:50;8.30;99.90
44747;DHT22;30472;49.490;10.972;2023-04-03T10:47:28;8.00;99.90
44747;DHT22;30472;49.490;10.972;2023-04-03T10:50:06;8.50;99.90
44747;DHT22;30472;49.490;10.972;2023-04-03T10:56:02;8.00;99.90
44747;DHT22;30472;49.490;10.972;2023-04-03T10:58:35;7.80;99.90
44747;DHT22;30472;49.490;10.972;2023-04-03T11:01:12;7.80;99.90
44747;DHT22;30472;49.490;10.972;2023-04-03T11:03:42;7.60;99.90
44747;DHT22;30472;49.490;10.972;2023-04-03T11:06:10;8.00;99.90
44747;DHT22;30472;49.490;10.972;2023-04-03T11:08:54;7.60;99.90
44747;DHT22;30472;49.490;10.972;2023-04-03T11:11:27;7.50;99.90
44747;DHT22;30472;49.490;10.972;2023-04-03T11:14:09;7.30;99.90
44747;DHT22;30472;49.490;10.972;2023-04-03T11:16:43;7.30;99.90
44747;DHT22;30472;49.490;10.972;2023-04-03T11:19:13;7.90;99.90
44747;DHT22;30472;49.490;10.972;2023-04-03T11:21:46;8.50;99.90
44747;DHT22;30472;49.490;10.972;2023-04-03T11:24:25;10.00;99.90
44747;DHT22;30472;49.490;10.972;2023-04-03T11:26:54;10.50;99.90
44747;DHT22;30472;49.490;10.972;2023-04-03T11:29:24;10.00;99.90
44747;DHT22;30472;49.490;10.972;2023-04-03T11:32:39;9.60;99.90
44747;DHT22;30472;49.490;10.972;2023-04-03T11:35:09;8.10;99.90
44747;DHT22;30472;49.490;10.972;2023-04-03T11:37:45;7.80;99.90
44747;DHT22;30472;49.490;10.972;2023-04-03T11:42:42;7.80;99.90
44747;DHT22;30472;49.490;10.972;2023-04-03T11:50:41;8.50;99.90
44747;DHT22;30472;49.490;10.972;2023-04-03T11:55:43;8.20;99.90
44747;DHT22;30472;49.490;10.972;2023-04-03T11:58:18;8.00;99.90
44747;DHT22;30472;49.490;10.972;2023-04-03T12:05:51;9.50;99.90
44747;DHT22;30472;49.490;10.972;2023-04-03T12:13:42;9.00;99.90
44747;DHT22;30472;49.490;10.972;2023-04-03T12:19:32;9.90;99.90
44747;DHT22;30472;49.490;10.972;2023-04-03T12:24:51;8.50;99.90
44747;DHT22;30472;49.490;10.972;2023-04-03T12:27:28;8.10;99.90
44747;DHT22;30472;49.490;10.972;2023-04-03T12:40:58;9.30;99.90
44747;DHT22;30472;49.490;10.972;2023-04-03T12:46:18;8.40;99.90
44747;DHT22;30472;49.490;10.972;2023-04-03T12:54:02;8.20;99.90
44747;DHT22;30472;49.490;10.972;2023-04-03T12:56:30;8.90;99.90
44747;DHT22;30472;49.490;10.972;2023-04-03T12:59:14;9.20;99.90
44747;DHT22;30472;49.490;10.972;2023-04-03T13:01:43;9.10;99.90
44747;DHT22;30472;49.490;10.972;2023-04-03T13:04:10;9.20;99.90
44747;DHT22;30472;49.490;10.972;2023-04-03T13:06:42;9.60;99.90
44747;DHT22;30472;49.490;10.972;2023-04-03T13:09:41;9.20;99.90
44747;DHT22;30472;49.490;10.972;2023-04-03T13:12:15;9.70;99.90
44747;DHT22;30472;49.490;10.972;2023-04-03T13:14:54;9.80;99.90
44747;DHT22;30472;49.490;10.972;2023-04-03T13:17:21;9.40;99.90
44747;DHT22;30472;49.490;10.972;2023-04-03T13:19:48;8.90;99.90
44747;DHT22;30472;49.490;10.972;2023-04-03T13:22:24;8.60;99.90
44747;DHT22;30472;49.490;10.972;2023-04-03T13:24:51;8.60;99.90
44747;DHT22;30472;49.490;10.972;2023-04-03T13:27:19;8.10;99.90
44747;DHT22;30472;49.490;10.972;2023-04-03T13:29:50;8.20;99.90
44747;DHT22;30472;49.490;10.972;2023-04-03T13:32:20;8.40;99.90
44747;DHT22;30472;49.490;10.972;2023-04-03T13:34:46;8.70;99.90
44747;DHT22;30472;49.490;10.972;2023-04-03T13:37:38;8.70;99.90
44747;DHT22;30472;49.490;10.972;2023-04-03T13:42:36;9.40;99.90
44747;DHT22;30472;49.490;10.972;2023-04-03T13:45:22;9.40;99.90
44747;DHT22;30472;49.490;10.972;2023-04-03T13:47:51;9.40;99.90
44747;DHT22;30472;49.490;10.972;2023-04-03T13:50:23;9.60;99.90
44747;DHT22;30472;49.490;10.972;2023-04-03T13:52:55;9.80;99.90
44747;DHT22;30472;49.490;10.972;2023-04-03T13:55:34;10.00;99.90
44747;DHT22;30472;49.490;10.972;2023-04-03T14:00:38;10.60;99.90
44747;DHT22;30472;49.490;10.972;2023-04-03T14:03:40;10.30;99.90
44747;DHT22;30472;49.490;10.972;2023-04-03T14:06:08;9.80;99.90
44747;DHT22;30472;49.490;10.972;2023-04-03T14:08:35;9.60;99.90
44747;DHT22;30472;49.490;10.972;2023-04-03T14:11:00;9.00;99.90
44747;DHT22;30472;49.490;10.972;2023-04-03T14:13:26;8.70;99.90
44747;DHT22;30472;49.490;10.972;2023-04-03T14:15:51;8.80;99.90
44747;DHT22;30472;49.490;10.972;2023-04-03T14:18:19;9.10;99.90
44747;DHT22;30472;49.490;10.972;2023-04-03T14:20:46;9.60;99.90
44747;DHT22;30472;49.490;10.972;2023-04-03T14:23:12;9.50;99.90
44747;DHT22;30472;49.490;10.972;2023-04-03T14:25:38;9.70;99.90
44747;DHT22;30472;49.490;10.972;2023-04-03T14:28:18;9.10;99.90
44747;DHT22;30472;49.490;10.972;2023-04-03T14:30:45;8.90;99.90
44747;DHT22;30472;49.490;10.972;2023-04-03T14:33:14;8.60;99.90
44747;DHT22;30472;49.490;10.972;2023-04-03T14:35:41;8.70;99.90
44747;DHT22;30472;49.490;10.972;2023-04-03T14:38:24;8.90;99.90
44747;DHT22;30472;49.490;10.972;2023-04-03T14:40:51;9.00;99.90
44747;DHT22;30472;49.490;10.972;2023-04-03T14:43:17;9.30;99.90
44747;DHT22;30472;49.490;10.972;2023-04-03T14:45:44;9.40;99.90
44747;DHT22;30472;49.490;10.972;2023-04-03T14:48:20;9.40;99.90
44747;DHT22;30472;49.490;10.972;2023-04-03T14:50:47;9.60;99.90
44747;DHT22;30472;49.490;10.972;2023-04-03T14:53:13;9.70;99.90
44747;DHT22;30472;49.490;10.972;2023-04-03T14:55:44;9.30;99.90
44747;DHT22;30472;49.490;10.972;2023-04-03T14:58:15;8.70;99.90
44747;DHT22;30472;49.490;10.972;2023-04-03T15:00:42;8.60;99.90
44747;DHT22;30472;49.490;10.972;2023-04-03T15:03:26;8.20;99.90
44747;DHT22;30472;49.490;10.972;2023-04-03T15:05:51;8.30;99.90
44747;DHT22;30472;49.490;10.972;2023-04-03T15:08:25;8.20;99.90
44747;DHT22;30472;49.490;10.972;2023-04-03T15:10:52;8.00;99.90
44747;DHT22;30472;49.490;10.972;2023-04-03T15:13:18;7.60;99.90
44747;DHT22;30472;49.490;10.972;2023-04-03T15:15:45;7.60;99.90
44747;DHT22;30472;49.490;10.972;2023-04-03T15:18:15;7.80;99.90
44747;DHT22;30472;49.490;10.972;2023-04-03T15:20:42;7.90;99.90
44747;DHT22;30472;49.490;10.972;2023-04-03T15:23:10;7.90;99.90
44747;DHT22;30472;49.490;10.972;2023-04-03T15:25:36;7.80;99.90
44747;DHT22;30472;49.490;10.972;2023-04-03T15:28:01;8.00;99.90
44747;DHT22;30472;49.490;10.972;2023-04-03T15:30:27;8.40;99.90
44747;DHT22;30472;49.490;10.972;2023-04-03T15:32:53;8.20;99.90
44747;DHT22;30472;49.490;10.972;2023-04-03T15:35:18;8.00;99.90
44747;DHT22;30472;49.490;10.972;2023-04-03T15:37:44;7.80;99.90
44747;DHT22;30472;49.490;10.972;2023-04-03T15:40:10;7.80;99.90
44747;DHT22;30472;49.490;10.972;2023-04-03T15:42:36;7.40;99.90
44747;DHT22;30472;49.490;10.972;2023-04-03T15:45:01;7.20;99.90
44747;DHT22;30472;49.490;10.972;2023-04-03T15:47:27;7.20;99.90
44747;DHT22;30472;49.490;10.972;2023-04-03T15:49:53;7.00;99.90
44747;DHT22;30472;49.490;10.972;2023-04-03T15:52:19;7.00;99.90
44747;DHT22;30472;49.490;10.972;2023-04-03T15:54:45;7.00;99.90
44747;DHT22;30472;49.490;10.972;2023-04-03T15:57:11;7.20;99.90
44747;DHT22;30472;49.490;10.972;2023-04-03T15:59:36;7.30;99.90
44747;DHT22;30472;49.490;10.972;2023-04-03T16:02:04;7.50;99.90
44747;DHT22;30472;49.490;10.972;2023-04-03T16:04:30;7.50;99.90
44747;DHT22;30472;49.490;10.972;2023-04-03T16:06:56;7.50;99.90
44747;DHT22;30472;49.490;10.972;2023-04-03T16:09:22;7.50;99.90
44747;DHT22;30472;49.490;10.972;2023-04-03T16:11:47;7.50;99.90
44747;DHT22;30472;49.490;10.972;2023-04-03T16:14:13;7.60;99.90
44747;DHT22;30472;49.490;10.972;2023-04-03T16:16:39;7.10;99.90
44747;DHT22;30472;49.490;10.972;2023-04-03T16:19:05;7.00;99.90
44747;DHT22;30472;49.490;10.972;2023-04-03T16:21:32;6.90;99.90
44747;DHT22;30472;49.490;10.972;2023-04-03T16:23:58;6.90;99.90
44747;DHT22;30472;49.490;10.972;2023-04-03T16:26:24;7.00;99.90
44747;DHT22;30472;49.490;10.972;2023-04-03T16:28:51;6.90;99.90
44747;DHT22;30472;49.490;10.972;2023-04-03T16:31:16;6.70;99.90
44747;DHT22;30472;49.490;10.972;2023-04-03T16:33:42;6.60;99.90
44747;DHT22;30472;49.490;10.972;2023-04-03T16:36:08;6.60;99.90
44747;DHT22;30472;49.490;10.972;2023-04-03T16:38:33;6.60;99.90
44747;DHT22;30472;49.490;10.972;2023-04-03T16:40:59;6.40;99.90
44747;DHT22;30472;49.490;10.972;2023-04-03T16:43:29;6.30;99.90
44747;DHT22;30472;49.490;10.972;2023-04-03T16:45:55;6.10;99.90
44747;DHT22;30472;49.490;10.972;2023-04-03T16:48:21;5.90;99.90
44747;DHT22;30472;49.490;10.972;2023-04-03T16:50:48;5.90;99.90
44747;DHT22;30472;49.490;10.972;2023-04-03T16:53:15;5.80;99.90
44747;DHT22;30472;49.490;10.972;2023-04-03T16:55:40;5.70;99.90
44747;DHT22;30472;49.490;10.972;2023-04-03T16:58:06;5.60;99.90
44747;DHT22;30472;49.490;10.972;2023-04-03T17:00:32;5.50;99.90
44747;DHT22;30472;49.490;10.972;2023-04-03T17:02:58;5.50;99.90
44747;DHT22;30472;49.490;10.972;2023-04-03T17:05:24;5.40;99.90
44747;DHT22;30472;49.490;10.972;2023-04-03T17:07:50;5.30;99.90
44747;DHT22;30472;49.490;10.972;2023-04-03T17:10:16;5.20;99.90
44747;DHT22;30472;49.490;10.972;2023-04-03T17:12:42;5.10;99.90
44747;DHT22;30472;49.490;10.972;2023-04-03T17:15:08;5.10;99.90
44747;DHT22;30472;49.490;10.972;2023-04-03T17:17:33;4.90;99.90